Milburn, Nebraska
Current Conditions -  °F | °C
As of 6:53 AM on Wednesday 22 Oct 2014 (Local Time) from KBBW Reporting Station
Broken Clouds Broken Clouds  
Wind Chill: 57°   Ceiling: 9500
Heat Index: 57°   Visibility: 10mi
Dew Point: 53°   Wind: 8mph
Humidity: 87%   Direction: 150°SSE
Pressure: 29.94"   Gusts: NA
Location:  41.6612°N, 99.7844°W
Report Text: KBBW 221153Z AUTO 15007KT 10SM BKN095 14/12 A2994 RMK AO2 SLP126 T01390117 10156 20133 53003
Loading
Personal Weather Stations






























Interactive Weather Map
Tropical Storm Tracking
New forecast layout! Learn more

10-Day Weather Forecast

Advertisements
Track Severe Weather on mobile